createdAt,value
2018-06-02T00:00:42.341Z,85.70
2018-06-02T00:03:09.996Z,84.70
2018-06-02T00:05:37.567Z,85.00
2018-06-02T00:08:05.135Z,85.20
2018-06-02T00:10:32.741Z,85.30
2018-06-02T00:13:00.426Z,85.70
2018-06-02T00:15:28.057Z,85.80
2018-06-02T00:17:56.421Z,85.80
2018-06-02T00:20:24.797Z,86.30
2018-06-02T00:22:53.431Z,86.90
2018-06-02T00:25:21.031Z,86.10
2018-06-02T00:27:48.629Z,86.50
2018-06-02T00:30:16.273Z,86.70
2018-06-02T00:32:44.677Z,87.00
2018-06-02T00:35:12.256Z,87.00
2018-06-02T00:37:39.891Z,87.00
2018-06-02T00:40:07.489Z,87.50
2018-06-02T00:42:35.094Z,87.60
2018-06-02T00:45:03.497Z,87.90
2018-06-02T00:47:31.092Z,87.80
2018-06-02T00:49:58.700Z,88.10
2018-06-02T00:52:26.253Z,88.10
2018-06-02T00:55:06.453Z,89.00
2018-06-02T00:57:34.055Z,88.90
2018-06-02T01:00:01.661Z,89.10
2018-06-02T01:02:29.267Z,89.40
2018-06-02T01:04:56.997Z,89.50
2018-06-02T01:07:24.575Z,89.70
2018-06-02T01:09:52.221Z,90.00
2018-06-02T01:12:19.825Z,90.00
2018-06-02T01:14:47.431Z,90.00
2018-06-02T01:17:15.051Z,90.00
2018-06-02T01:19:43.419Z,90.10
2018-06-02T01:22:10.999Z,90.10
2018-06-02T01:24:39.358Z,90.30
2018-06-02T01:27:06.964Z,90.20
2018-06-02T01:29:34.567Z,90.50
2018-06-02T01:32:02.208Z,90.60
2018-06-02T01:34:29.847Z,90.70
2018-06-02T01:36:57.445Z,90.80
2018-06-02T01:39:24.983Z,90.80
2018-06-02T01:41:52.614Z,90.90
2018-06-02T01:44:20.184Z,90.90
2018-06-02T01:46:47.824Z,91.00
2018-06-02T01:49:16.199Z,91.20
2018-06-02T01:51:44.549Z,91.20
2018-06-02T01:54:12.195Z,91.20
2018-06-02T01:56:39.818Z,91.30
2018-06-02T01:59:07.427Z,91.30
2018-06-02T02:01:35.114Z,91.40
2018-06-02T02:04:03.490Z,91.30
2018-06-02T02:06:31.886Z,91.10
2018-06-02T02:09:00.275Z,91.50
2018-06-02T02:11:27.913Z,91.40
2018-06-02T02:13:55.536Z,91.40
2018-06-02T02:16:23.165Z,91.60
2018-06-02T02:18:50.785Z,91.70
2018-06-02T02:21:18.401Z,91.70
2018-06-02T02:23:46.014Z,91.80
2018-06-02T02:26:13.627Z,91.90
2018-06-02T02:28:41.231Z,91.80
2018-06-02T02:31:08.825Z,91.90
2018-06-02T02:33:36.423Z,91.90
2018-06-02T02:36:04.039Z,92.10
2018-06-02T02:38:32.429Z,92.20
2018-06-02T02:41:00.025Z,92.20
2018-06-02T02:43:27.654Z,92.30
2018-06-02T02:45:55.279Z,92.20
2018-06-02T02:48:23.678Z,92.60
2018-06-02T02:50:51.301Z,92.20
2018-06-02T02:53:18.881Z,92.20
2018-06-02T02:55:47.308Z,92.20
2018-06-02T02:58:14.895Z,92.20
2018-06-02T03:00:42.536Z,92.20
2018-06-02T03:03:10.128Z,92.30
2018-06-02T03:05:37.755Z,92.10
2018-06-02T03:08:05.321Z,92.30
2018-06-02T03:10:32.945Z,92.40
2018-06-02T03:13:00.597Z,92.40
2018-06-02T03:15:28.185Z,92.30
2018-06-02T03:17:55.802Z,92.40
2018-06-02T03:20:23.479Z,92.60
2018-06-02T03:22:51.890Z,92.90
2018-06-02T03:25:19.485Z,92.90
2018-06-02T03:27:47.063Z,93.00
2018-06-02T03:30:14.653Z,92.70
2018-06-02T03:32:42.233Z,92.70
2018-06-02T03:35:09.855Z,92.90
2018-06-02T03:37:38.235Z,92.60
2018-06-02T03:40:06.602Z,92.80
2018-06-02T03:42:34.203Z,92.70
2018-06-02T03:45:01.789Z,92.60
2018-06-02T03:47:29.407Z,92.60
2018-06-02T03:49:57.004Z,92.50
2018-06-02T03:52:24.604Z,92.50
2018-06-02T03:54:52.245Z,92.20
2018-06-02T03:57:19.860Z,91.80
2018-06-02T03:59:47.477Z,91.60
2018-06-02T04:02:15.076Z,91.50
2018-06-02T04:04:43.447Z,91.10
2018-06-02T04:07:11.837Z,91.00
2018-06-02T04:09:39.479Z,91.00
2018-06-02T04:12:07.881Z,90.90
2018-06-02T04:14:36.308Z,90.90
2018-06-02T04:17:03.867Z,90.80
2018-06-02T04:19:31.504Z,90.30
2018-06-02T04:21:59.338Z,90.30
2018-06-02T04:24:27.695Z,90.20
2018-06-02T04:26:55.326Z,90.30
2018-06-02T04:29:22.924Z,90.70
2018-06-02T04:31:51.307Z,90.40
2018-06-02T04:34:19.661Z,90.30
2018-06-02T04:36:47.219Z,90.50
2018-06-02T04:39:14.839Z,89.30
2018-06-02T04:41:42.419Z,88.60
2018-06-02T04:44:10.067Z,88.40
2018-06-02T04:46:37.629Z,89.00
2018-06-02T04:49:05.220Z,89.00
2018-06-02T04:51:32.803Z,88.10
2018-06-02T04:54:01.339Z,84.80
2018-06-02T04:56:28.969Z,84.00
2018-06-02T04:58:56.584Z,83.40
2018-06-02T05:01:24.219Z,80.10
2018-06-02T05:03:51.793Z,76.30
2018-06-02T05:06:19.439Z,73.50
2018-06-02T05:08:47.079Z,70.10
2018-06-02T05:11:14.705Z,68.40
2018-06-02T05:13:42.274Z,66.60
2018-06-02T05:16:10.671Z,59.50
2018-06-02T05:18:38.283Z,59.60
2018-06-02T05:21:05.936Z,56.70
2018-06-02T05:23:33.584Z,56.00
2018-06-02T05:26:01.206Z,55.20
2018-06-02T05:28:29.614Z,51.60
2018-06-02T05:30:57.228Z,51.50
2018-06-02T05:33:24.954Z,53.30
2018-06-02T05:35:53.354Z,55.50
2018-06-02T05:38:20.966Z,55.60
2018-06-02T05:40:48.542Z,55.40
2018-06-02T05:43:16.207Z,55.00
2018-06-02T05:45:43.818Z,56.20
2018-06-02T05:48:12.222Z,59.20
2018-06-02T05:50:39.815Z,59.00
2018-06-02T05:53:07.433Z,60.60
2018-06-02T05:55:35.059Z,62.10
2018-06-02T05:58:02.683Z,60.00
2018-06-02T06:00:30.257Z,58.50
2018-06-02T06:02:57.885Z,55.30
2018-06-02T06:05:25.473Z,51.80
2018-06-02T06:07:53.093Z,49.60
2018-06-02T06:10:21.557Z,48.00
2018-06-02T06:12:49.211Z,47.90
2018-06-02T06:15:17.614Z,47.70
2018-06-02T06:17:45.973Z,48.10
2018-06-02T06:20:14.347Z,47.90
2018-06-02T06:22:41.906Z,48.00
2018-06-02T06:25:09.510Z,50.70
2018-06-02T06:27:37.070Z,50.40
2018-06-02T06:30:04.677Z,50.20
2018-06-02T06:32:32.292Z,48.70
2018-06-02T06:34:59.840Z,49.20
2018-06-02T06:37:28.192Z,51.90
2018-06-02T06:39:55.796Z,51.90
2018-06-02T06:42:23.429Z,53.80
2018-06-02T06:44:51.788Z,57.60
2018-06-02T06:47:19.398Z,57.50
2018-06-02T06:49:47.014Z,59.60
2018-06-02T06:52:15.098Z,60.60
2018-06-02T06:54:42.749Z,62.30
2018-06-02T06:57:11.130Z,64.80
2018-06-02T06:59:38.746Z,64.80
2018-06-02T07:02:06.362Z,65.00
2018-06-02T07:04:34.728Z,65.80
2018-06-02T07:07:02.346Z,65.80
2018-06-02T07:09:29.920Z,67.40
2018-06-02T07:11:57.544Z,67.10
2018-06-02T07:14:25.128Z,68.00
2018-06-02T07:16:52.732Z,66.80
2018-06-02T07:19:20.324Z,66.30
2018-06-02T07:21:47.936Z,65.10
2018-06-02T07:24:15.531Z,64.10
2018-06-02T07:26:43.964Z,65.30
2018-06-02T07:29:11.584Z,65.20
2018-06-02T07:31:39.996Z,66.50
2018-06-02T07:34:07.622Z,66.60
2018-06-02T07:36:35.986Z,61.60
2018-06-02T07:39:05.312Z,61.60
2018-06-02T07:41:32.918Z,62.10
2018-06-02T07:44:00.492Z,62.00
2018-06-02T07:46:28.088Z,63.40
2018-06-02T07:48:55.706Z,61.10
2018-06-02T07:51:23.343Z,62.50
2018-06-02T07:53:50.988Z,61.80
2018-06-02T07:56:18.590Z,64.00
2018-06-02T07:58:46.239Z,63.00
2018-06-02T08:01:13.872Z,61.50
2018-06-02T08:03:41.487Z,60.00
2018-06-02T08:06:09.891Z,60.10
2018-06-02T08:08:37.576Z,60.10
2018-06-02T08:11:05.183Z,59.90
2018-06-02T08:13:34.302Z,61.20
2018-06-02T08:16:02.665Z,61.90
2018-06-02T08:18:30.226Z,61.90
2018-06-02T08:20:57.820Z,60.30
2018-06-02T08:23:25.436Z,62.40
2018-06-02T08:25:53.006Z,61.40
2018-06-02T08:28:20.620Z,61.70
2018-06-02T08:30:48.186Z,62.10
2018-06-02T08:33:15.826Z,61.80
2018-06-02T08:35:43.442Z,61.50
2018-06-02T08:38:11.100Z,58.70
2018-06-02T08:40:38.712Z,58.10
2018-06-02T08:43:06.308Z,57.70
2018-06-02T08:45:33.950Z,57.40
2018-06-02T08:48:01.599Z,57.90
2018-06-02T08:50:29.242Z,58.70
2018-06-02T08:52:56.852Z,59.80
2018-06-02T08:55:24.484Z,59.70
2018-06-02T08:57:52.074Z,59.50
2018-06-02T09:00:19.705Z,61.30
2018-06-02T09:02:47.307Z,59.50
2018-06-02T09:05:14.966Z,59.30
2018-06-02T09:07:42.562Z,58.50
2018-06-02T09:10:10.995Z,58.00
2018-06-02T09:12:38.609Z,57.90
2018-06-02T09:15:06.225Z,56.40
2018-06-02T09:17:33.840Z,56.60
2018-06-02T09:20:01.632Z,56.80
2018-06-02T09:22:29.273Z,57.40
2018-06-02T09:24:56.868Z,57.50
2018-06-02T09:27:24.492Z,57.90
2018-06-02T09:29:52.054Z,57.70
2018-06-02T09:32:19.653Z,58.60
2018-06-02T09:34:47.276Z,57.60
2018-06-02T09:37:14.846Z,58.40
2018-06-02T09:39:42.481Z,58.50
2018-06-02T09:42:10.821Z,57.80
2018-06-02T09:44:38.438Z,57.70
2018-06-02T09:47:06.043Z,55.30
2018-06-02T09:49:33.660Z,55.10
2018-06-02T09:52:01.263Z,56.30
2018-06-02T09:54:28.868Z,57.30
2018-06-02T09:56:57.226Z,56.60
2018-06-02T09:59:25.611Z,57.10
2018-06-02T10:01:53.988Z,55.70
2018-06-02T10:04:22.353Z,55.70
2018-06-02T10:06:49.967Z,55.70
2018-06-02T10:09:17.548Z,53.70
2018-06-02T10:11:45.162Z,52.60
2018-06-02T10:14:12.799Z,54.50
2018-06-02T10:16:40.435Z,55.30
2018-06-02T10:19:08.059Z,55.10
2018-06-02T10:21:35.696Z,53.30
2018-06-02T10:24:03.256Z,53.10
2018-06-02T10:26:31.645Z,55.00
2018-06-02T10:28:59.269Z,55.00
2018-06-02T10:31:26.862Z,53.10
2018-06-02T10:33:55.222Z,51.70
2018-06-02T10:36:23.572Z,52.20
2018-06-02T10:38:51.167Z,51.70
2018-06-02T10:41:19.539Z,51.90
2018-06-02T10:43:47.923Z,52.00
2018-06-02T10:46:16.279Z,51.50
2018-06-02T10:48:43.880Z,50.80
2018-06-02T10:51:11.489Z,52.00
2018-06-02T10:53:39.032Z,51.50
2018-06-02T10:56:06.654Z,49.90
2018-06-02T10:58:35.028Z,50.50
2018-06-02T11:01:03.407Z,50.30
2018-06-02T11:03:31.788Z,50.80
2018-06-02T11:06:00.190Z,48.00
2018-06-02T11:08:27.798Z,48.00
2018-06-02T11:10:55.436Z,47.60
2018-06-02T11:13:23.077Z,50.70
2018-06-02T11:15:50.633Z,49.90
2018-06-02T11:18:18.217Z,49.30
2018-06-02T11:20:45.879Z,49.20
2018-06-02T11:23:13.519Z,49.00
2018-06-02T11:25:41.213Z,49.70
2018-06-02T11:28:08.847Z,48.60
2018-06-02T11:30:36.446Z,48.70
2018-06-02T11:33:04.060Z,49.30
2018-06-02T11:35:31.684Z,48.30
2018-06-02T11:38:00.072Z,47.80
2018-06-02T11:40:28.468Z,44.90
2018-06-02T11:42:56.091Z,44.80
2018-06-02T11:45:23.709Z,44.90
2018-06-02T11:47:51.343Z,45.70
2018-06-02T11:50:19.706Z,44.50
2018-06-02T11:52:47.298Z,44.50
2018-06-02T11:55:14.896Z,44.30
2018-06-02T11:57:42.522Z,43.20
2018-06-02T12:00:10.130Z,44.10
2018-06-02T12:02:37.771Z,43.40
2018-06-02T12:05:05.361Z,43.60
2018-06-02T12:07:32.965Z,45.30
2018-06-02T12:10:00.597Z,43.80
2018-06-02T12:12:28.985Z,44.20
2018-06-02T12:14:57.428Z,44.70
2018-06-02T12:17:25.033Z,44.70
2018-06-02T12:19:53.394Z,47.90
2018-06-02T12:22:20.998Z,47.80
2018-06-02T12:24:48.636Z,47.90
2018-06-02T12:27:16.256Z,46.70
2018-06-02T12:29:43.861Z,45.80
2018-06-02T12:32:11.481Z,46.50
2018-06-02T12:34:39.049Z,45.80
2018-06-02T12:37:06.627Z,45.90
2018-06-02T12:39:34.993Z,45.10
2018-06-02T12:42:02.563Z,45.00
2018-06-02T12:44:30.933Z,45.50
2018-06-02T12:46:58.523Z,45.50
2018-06-02T12:49:26.094Z,45.90
2018-06-02T12:51:53.708Z,48.30
2018-06-02T12:54:21.290Z,46.80
2018-06-02T12:56:49.671Z,40.70
2018-06-02T12:59:17.265Z,40.60
2018-06-02T13:01:44.866Z,40.80
2018-06-02T13:04:12.504Z,40.00
2018-06-02T13:06:40.139Z,37.00
2018-06-02T13:09:07.755Z,37.00
2018-06-02T13:11:35.344Z,37.40
2018-06-02T13:14:02.956Z,38.20
2018-06-02T13:16:30.600Z,39.30
2018-06-02T13:18:58.191Z,40.70
2018-06-02T13:21:25.801Z,45.20
2018-06-02T13:23:53.415Z,45.00
2018-06-02T13:26:21.038Z,45.70
2018-06-02T13:28:48.669Z,46.40
2018-06-02T13:31:16.263Z,44.30
2018-06-02T13:33:43.861Z,44.20
2018-06-02T13:36:12.233Z,42.10
2018-06-02T13:38:39.836Z,41.80
2018-06-02T13:41:07.435Z,38.30
2018-06-02T13:43:35.055Z,38.30
2018-06-02T13:46:02.681Z,38.50
2018-06-02T13:48:30.479Z,38.60
2018-06-02T13:50:58.057Z,40.60
2018-06-02T13:53:25.723Z,41.20
2018-06-02T13:55:53.319Z,43.20
2018-06-02T13:58:20.974Z,42.60
2018-06-02T14:00:48.603Z,43.40
2018-06-02T14:03:16.221Z,46.00
2018-06-02T14:05:43.810Z,45.50
2018-06-02T14:08:11.434Z,45.50
2018-06-02T14:10:39.058Z,44.30
2018-06-02T14:13:06.674Z,42.30
2018-06-02T14:15:35.024Z,41.50
2018-06-02T14:18:02.628Z,41.40
2018-06-02T14:20:30.261Z,40.70
2018-06-02T14:22:57.871Z,40.60
2018-06-02T14:25:25.487Z,41.40
2018-06-02T14:27:53.083Z,40.70
2018-06-02T14:30:20.664Z,41.00
2018-06-02T14:32:48.323Z,38.80
2018-06-02T14:35:15.946Z,39.90
2018-06-02T14:37:44.319Z,39.20
2018-06-02T14:40:12.698Z,37.90
2018-06-02T14:42:41.046Z,37.60
2018-06-02T14:45:08.707Z,37.80
2018-06-02T14:47:36.307Z,35.60
2018-06-02T14:50:04.672Z,37.30
2018-06-02T14:52:33.068Z,36.40
2018-06-02T14:55:00.684Z,36.30
2018-06-02T14:57:28.334Z,36.70
2018-06-02T14:59:55.952Z,37.30
2018-06-02T15:02:23.581Z,40.30
2018-06-02T15:04:51.193Z,39.70
2018-06-02T15:07:18.766Z,40.80
2018-06-02T15:09:46.379Z,39.90
2018-06-02T15:12:14.759Z,40.70
2018-06-02T15:14:43.129Z,41.90
2018-06-02T15:17:11.519Z,43.90
2018-06-02T15:19:39.121Z,43.90
2018-06-02T15:22:06.716Z,42.70
2018-06-02T15:24:34.333Z,42.90
2018-06-02T15:27:01.925Z,43.00
2018-06-02T15:29:29.526Z,44.00
2018-06-02T15:31:57.857Z,43.70
2018-06-02T15:34:25.424Z,43.80
2018-06-02T15:36:53.057Z,42.50
2018-06-02T15:39:20.658Z,42.40
2018-06-02T15:41:48.280Z,41.70
2018-06-02T15:44:15.873Z,41.80
2018-06-02T15:46:43.499Z,42.30
2018-06-02T15:49:11.093Z,43.60
2018-06-02T15:51:38.687Z,45.20
2018-06-02T15:54:07.061Z,45.80
2018-06-02T15:56:35.441Z,47.00
2018-06-02T15:59:07.638Z,46.60
2018-06-02T16:01:35.261Z,46.50
2018-06-02T16:04:02.854Z,46.40
2018-06-02T16:06:30.469Z,47.20
2018-06-02T16:08:58.203Z,48.30
2018-06-02T16:11:25.801Z,48.80
2018-06-02T16:13:53.445Z,49.60
2018-06-02T16:16:21.081Z,50.90
2018-06-02T16:18:48.711Z,50.60
2018-06-02T16:21:16.328Z,50.90
2018-06-02T16:23:43.907Z,51.20
2018-06-02T16:26:13.270Z,50.80
2018-06-02T16:28:40.842Z,50.80
2018-06-02T16:31:08.469Z,50.70
2018-06-02T16:33:36.097Z,50.70
2018-06-02T16:36:04.463Z,51.10
2018-06-02T16:38:32.149Z,51.10
2018-06-02T16:41:00.573Z,50.10
2018-06-02T16:43:28.201Z,50.00
2018-06-02T16:45:55.778Z,50.30
2018-06-02T16:48:23.401Z,51.30
2018-06-02T16:50:53.032Z,51.50
2018-06-02T16:53:21.275Z,51.50
2018-06-02T16:55:48.877Z,50.60
2018-06-02T16:58:16.559Z,50.70
2018-06-02T17:00:44.153Z,50.70
2018-06-02T17:03:11.783Z,49.90
2018-06-02T17:05:39.406Z,50.50
2018-06-02T17:08:07.037Z,49.60
2018-06-02T17:10:34.676Z,50.10
2018-06-02T17:13:02.313Z,50.50
2018-06-02T17:15:29.895Z,50.80
2018-06-02T17:17:57.512Z,50.70
2018-06-02T17:20:25.924Z,51.50
2018-06-02T17:22:53.542Z,51.50
2018-06-02T17:25:21.968Z,50.70
2018-06-02T17:27:49.608Z,50.70
2018-06-02T17:30:17.215Z,51.00
2018-06-02T17:32:44.803Z,51.00
2018-06-02T17:35:13.329Z,52.30
2018-06-02T17:37:40.946Z,52.30
2018-06-02T17:40:08.588Z,52.30
2018-06-02T17:42:36.264Z,51.90
2018-06-02T17:45:03.881Z,51.10
2018-06-02T17:47:31.467Z,52.20
2018-06-02T17:49:59.079Z,53.10
2018-06-02T17:52:26.665Z,52.00
2018-06-02T17:54:54.249Z,51.90
2018-06-02T17:57:21.886Z,51.60
2018-06-02T17:59:49.487Z,51.70
2018-06-02T18:02:17.091Z,51.90
2018-06-02T18:04:44.695Z,52.30
2018-06-02T18:07:12.323Z,51.10
2018-06-02T18:09:39.947Z,51.50
2018-06-02T18:12:08.323Z,51.50
2018-06-02T18:14:36.750Z,51.40
2018-06-02T18:17:04.347Z,51.40
2018-06-02T18:19:31.931Z,51.40
2018-06-02T18:21:59.557Z,52.40
2018-06-02T18:24:27.163Z,52.60
2018-06-02T18:26:54.741Z,52.50
2018-06-02T18:29:22.335Z,52.60
2018-06-02T18:31:49.946Z,52.80
2018-06-02T18:34:17.587Z,52.40
2018-06-02T18:36:45.958Z,52.60
2018-06-02T18:39:14.327Z,52.60
2018-06-02T18:41:41.978Z,52.60
2018-06-02T18:44:09.577Z,52.90
2018-06-02T18:46:37.941Z,53.20
2018-06-02T18:49:06.311Z,53.80
2018-06-02T18:51:33.953Z,53.80
2018-06-02T18:54:02.321Z,53.80
2018-06-02T18:56:29.947Z,53.80
2018-06-02T18:58:57.565Z,53.90
2018-06-02T19:01:25.177Z,54.00
2018-06-02T19:03:54.016Z,54.80
2018-06-02T19:06:21.643Z,54.70
2018-06-02T19:08:49.281Z,54.80
2018-06-02T19:11:16.965Z,54.60
2018-06-02T19:13:44.585Z,55.10
2018-06-02T19:16:12.980Z,55.70
2018-06-02T19:18:40.593Z,55.70
2018-06-02T19:21:08.965Z,56.20
2018-06-02T19:23:38.098Z,56.70
2018-06-02T19:26:05.736Z,56.60
2018-06-02T19:28:33.356Z,56.80
2018-06-02T19:31:00.963Z,56.80
2018-06-02T19:33:29.376Z,57.50
2018-06-02T19:35:56.961Z,57.50
2018-06-02T19:38:24.540Z,57.50
2018-06-02T19:40:52.181Z,57.40
2018-06-02T19:43:19.788Z,57.60
2018-06-02T19:45:47.401Z,58.20
2018-06-02T19:48:15.018Z,58.40
2018-06-02T19:50:42.574Z,58.20
2018-06-02T19:53:10.940Z,58.50
2018-06-02T19:55:38.562Z,58.50
2018-06-02T19:58:06.156Z,58.80
2018-06-02T20:04:04.624Z,59.10
2018-06-02T20:06:32.233Z,59.40
2018-06-02T20:08:59.816Z,59.70
2018-06-02T20:11:28.244Z,59.80
2018-06-02T20:13:55.862Z,59.80
2018-06-02T20:16:23.542Z,60.00
2018-06-02T20:18:51.162Z,60.60
2018-06-02T20:21:19.544Z,61.90
2018-06-02T20:23:47.884Z,61.80
2018-06-02T20:26:16.121Z,61.80
2018-06-02T20:28:43.720Z,62.00
2018-06-02T20:31:11.322Z,63.00
2018-06-02T20:33:39.848Z,63.50
2018-06-02T20:36:07.516Z,63.30
2018-06-02T20:38:35.082Z,63.70
2018-06-02T20:41:02.710Z,63.70
2018-06-02T20:43:30.518Z,64.10
2018-06-02T20:45:58.224Z,64.10
2018-06-02T20:48:25.925Z,64.30
2018-06-02T20:50:53.542Z,64.60
2018-06-02T20:53:21.911Z,65.40
2018-06-02T20:55:49.544Z,65.40
2018-06-02T20:58:17.158Z,67.00
2018-06-02T21:00:44.764Z,67.50
2018-06-02T21:03:12.386Z,68.20
2018-06-02T21:05:39.983Z,68.40
2018-06-02T21:08:07.608Z,68.30
2018-06-02T21:10:35.248Z,68.40
2018-06-02T21:13:03.593Z,68.80
2018-06-02T21:15:31.231Z,68.80
2018-06-02T21:17:58.872Z,69.80
2018-06-02T21:20:26.456Z,69.70
2018-06-02T21:22:54.003Z,70.00
2018-06-02T21:25:21.594Z,70.40
2018-06-02T21:27:49.180Z,71.10
2018-06-02T21:30:16.866Z,71.40
2018-06-02T21:32:44.487Z,71.70
2018-06-02T21:35:12.068Z,72.10
2018-06-02T21:37:40.432Z,72.80
2018-06-02T21:40:08.813Z,73.60
2018-06-02T21:42:36.416Z,73.60
2018-06-02T21:45:04.054Z,73.50
2018-06-02T21:47:32.420Z,73.80
2018-06-02T21:50:00.040Z,73.80
2018-06-02T21:52:29.580Z,74.60
2018-06-02T21:54:57.208Z,74.40
2018-06-02T21:57:24.826Z,74.60
2018-06-02T21:59:52.423Z,74.70
2018-06-02T22:02:20.029Z,75.40
2018-06-02T22:04:47.648Z,75.80
2018-06-02T22:07:15.260Z,75.60
2018-06-02T22:09:43.643Z,76.30
2018-06-02T22:12:12.045Z,76.80
2018-06-02T22:14:39.633Z,76.80
2018-06-02T22:17:07.235Z,77.50
2018-06-02T22:19:35.593Z,77.70
2018-06-02T22:22:03.211Z,77.60
2018-06-02T22:24:30.817Z,78.60
2018-06-02T22:26:58.432Z,77.80
2018-06-02T22:29:26.062Z,78.90
2018-06-02T22:31:54.448Z,79.90
2018-06-02T22:34:22.058Z,79.90
2018-06-02T22:36:49.645Z,79.80
2018-06-02T22:39:18.009Z,79.30
2018-06-02T22:41:45.658Z,79.20
2018-06-02T22:44:13.239Z,78.70
2018-06-02T22:46:40.864Z,79.30
2018-06-02T22:49:08.482Z,79.20
2018-06-02T22:51:47.951Z,79.90
2018-06-02T22:54:15.525Z,80.10
2018-06-02T22:56:43.145Z,79.40
2018-06-02T22:59:11.552Z,80.10
2018-06-02T23:01:39.194Z,80.00
2018-06-02T23:04:07.589Z,80.20
2018-06-02T23:06:35.274Z,80.20
2018-06-02T23:09:02.864Z,80.30
2018-06-02T23:11:30.484Z,80.30
2018-06-02T23:13:58.098Z,80.60
2018-06-02T23:16:26.490Z,81.40
2018-06-02T23:18:54.836Z,81.50
2018-06-02T23:21:22.452Z,81.50
2018-06-02T23:23:50.047Z,81.40
2018-06-02T23:26:17.686Z,81.90
2018-06-02T23:28:45.274Z,82.10
2018-06-02T23:31:12.914Z,82.80
2018-06-02T23:33:40.558Z,83.30
2018-06-02T23:36:08.165Z,83.60
2018-06-02T23:38:35.743Z,83.90
2018-06-02T23:41:04.114Z,84.40
2018-06-02T23:43:32.548Z,84.10
2018-06-02T23:46:00.154Z,83.90
2018-06-02T23:48:27.744Z,84.10
2018-06-02T23:50:56.140Z,84.70
2018-06-02T23:53:23.752Z,84.60
2018-06-02T23:55:51.400Z,84.80
2018-06-02T23:58:19.030Z,84.80
